View Sortable Currents For Network
ASOSAWOSCoCoRaHSCOOPDCPISU Soil Moisture
OtherSCANMy FavoritesBy StateRWISRWIS Surface
RWIS TrafficRWIS SoilBy NWS WFOUSCRN

Current AWOS Conditions

** This page will automatically refresh every five minutes.
Sorted by: (Station ID)     Click on a column to sort it.

Add ID: Name: Ob Time   Wind [knots]   Rainfall
Temp (Hi / Lo) DewP Feels RH% Dir Speed Peak Gust
@ Time
Alti Vsby Hour Today
TVKCenterville12:55 PM 82(82/63) 66 84.6 58 0 05 @ 07:55 AM 29.96 10 0
TNUNEWTON MUNI01:15 PM 82(82/63) 64 84 55 30 814 @ 01:15 AM 29.95 10 0
SXKSioux County01:15 PM 79(79/59) 64 0 61 0 06 @ 12:35 AM 29.99 10 0
SLBStorm Lake01:15 PM 79(79/59) 63 0 58 612 @ 11:55 AM 29.97 10 0
SHLSHELDON01:15 PM 79(79/55) 63 0 58 0 011 @ 12:35 PM 29.99 10 0
SDASHENANDOAH MUNI01:15 PM 81(81/59) 63 81.8 54 40 7G1214 @ 12:35 PM 29.96 10 0
RDKRED OAK01:15 PM 82(82/57) 63 83.4 51 6G1415 @ 11:15 AM 29.98 10 0
PROPerry01:15 PM 83(83/60) 59 83.1 43 330 79 @ 12:55 PM 29.97 10 0
PEAPELLA01:15 PM 84(85/64) 60 84.4 44 360 47 @ 07:15 AM 29.96 10 0
OXVKnoxville01:15 PM 82(82/64) 61 82.9 48 360 8G1314 @ 11:35 AM 29.95 10 0
OOAOskaloosa01:15 PM 84(85/64) 63 84.8 50 20 714 @ 12:55 PM 29.95 0
OLZOELWEIN01:15 PM 79(79/63) 63 0 58 360 611 @ 12:15 PM 29.95 10 0
MXOMONTICELLO MUNI01:15 PM 81(81/63) 64 82.3 58 350 1013 @ 12:35 PM 29.94 10 0
MUTMUSCATINE01:15 PM 82(82/64) 66 84.6 58 40 9G1515 @ 01:15 PM 29.92 10 0
MPZMOUNT PLEASANT01:15 PM 82(82/63) 66 84.6 58 360 716 @ 12:35 PM 29.92 10 0
LRJLE MARS01:15 PM 81(81/57) 63 81.8 54 66 @ 01:15 PM 29.98 10 0
IKVANKENY01:15 PM 81(81/66) 63 81.8 54 330 813 @ 01:35 AM 29.96 10 0
IIBINDEPENDENCE01:15 PM 80(81/62) 62 81.4 54 10 89 @ 11:35 AM 29.94 10 0
IFAIowa Falls01:15 PM 82(82/61) 56 81.6 41 350 6G1515 @ 01:15 PM 29.98 10 0
ICLCLARINDA01:15 PM 82(82/57) 61 82.9 48 6G1415 @ 11:55 AM 29.98 10 0
I75Osceola01:15 PM 83(83/63) 63 84.1 52 330 1116 @ 12:55 PM 29.97 7 0
HPTHampton01:15 PM 81(81/61) 61 81.5 51 360 716 @ 11:55 AM 29.96 10 0
HNRHARLAN01:15 PM 81(81/57) 59 81.1 48 30 710 @ 12:15 PM 29.99 10 0
GGIGrinnell01:15 PM 80(81/62) 63 81.6 56 340 88 @ 08:15 AM 29.96 10 0
FXYForest City01:15 PM 81(81/59) 59 81.1 48 340 8G1515 @ 11:55 AM 29.98 10 0
FSWFORT MADISON01:15 PM 82(82/63) 68 85.4 62 350 99 @ 12:35 PM 29.91 10 0
FODFORT DODGE12:56 PM 80(81/61) 65 81.9 60 57 @ 11:35 AM 29.99 10 0.01 0.13
FFLFAIRFIELD01:15 PM 82(82/63) 66 84.6 58 10 9G1416 @ 12:15 PM 29.93 10 0
EOKKEOKUK MUNI01:15 PM 82(82/64) 68 85.4 62 20 6G1315 @ 12:35 PM 29.9 10 0
EBSWebster City01:15 PM 81(81/61) 66 82.8 62 350 6G1114 @ 11:35 AM 29.96 10 0
DNSDENISON01:15 PM 81(81/57) 64 82.3 58 30 613 @ 12:35 PM 30 10 0
DEHDECORAH01:15 PM 79(79/61) 63 0 58 360 66 @ 03:15 AM 29.94 9 0
CWICLINTON12:56 PM 80(80/60) 66 82.2 62 30 1213 @ 12:35 PM 29.92 10 0
CSQCRESTON01:15 PM 81(81/61) 63 81.8 54 350 815 @ 12:35 PM 29.97 10 0
CNCCHARITON01:15 PM 82(82/64) 64 84 55 350 1215 @ 11:55 AM 29.95 10 0
CKPCherokee01:15 PM 80(80/59) 60 80.9 50 330 56 @ 12:35 PM 29.99 10 0
CINCARROLL01:15 PM 81(81/59) 64 82.3 58 5G1515 @ 01:15 PM 29.98 10 0
CCYCHARLES CITY 11 Jul 06:55 PMSite is Offline
CBFCOUNCIL BLUFFS01:15 PM 81(81/61) 61 81.5 51 10 713 @ 12:15 PM 29.98 10 0
CAVCLARION01:15 PM 81(81/61) 64 82.3 58 330 8G1313 @ 11:55 AM 29.98 10 0
BNWBOONE MUNI01:15 PM 82(82/63) 64 84 55 6G1213 @ 11:55 AM 29.96 10 0
AXAALGONA01:15 PM 81(81/61) 63 81.8 54 360 7G1213 @ 12:35 PM 29.97 10 0
AWGWASHINGTON01:15 PM 82(82/64) 68 85.4 62 10 1029 @ 10:35 AM 29.91 10 0
AIOATLANTIC01:15 PM 81(81/59) 64 82.3 58 611 @ 12:35 PM 29.97 10 0
ADUAUDUBON01:15 PM 84(84/57) 63 85 48 310 79 @ 08:35 AM 30 10 0